createdAt,value
2024-04-19T00:00:00.654Z,3.93
2024-04-19T00:02:28.042Z,4.40
2024-04-19T00:04:55.438Z,3.90
2024-04-19T00:07:22.611Z,4.83
2024-04-19T00:09:50.047Z,4.60
2024-04-19T00:12:17.106Z,4.17
2024-04-19T00:14:44.525Z,4.67
2024-04-19T00:17:13.950Z,4.40
2024-04-19T00:19:41.399Z,4.30
2024-04-19T00:22:08.306Z,4.20
2024-04-19T00:24:35.745Z,3.33
2024-04-19T00:27:02.783Z,4.20
2024-04-19T00:29:45.863Z,4.00
2024-04-19T00:32:13.105Z,3.90
2024-04-19T00:34:40.638Z,4.33
2024-04-19T00:37:07.832Z,3.57
2024-04-19T00:39:35.340Z,3.90
2024-04-19T00:42:02.395Z,3.60
2024-04-19T00:44:32.087Z,3.97
2024-04-19T00:47:00.098Z,3.27
2024-04-19T00:49:30.877Z,3.10
2024-04-19T00:51:58.570Z,3.30
2024-04-19T00:54:26.277Z,4.00
2024-04-19T00:56:53.535Z,4.20
2024-04-19T00:59:21.131Z,3.77
2024-04-19T01:01:48.433Z,4.20
2024-04-19T01:04:16.699Z,3.43
2024-04-19T01:06:43.892Z,3.43
2024-04-19T01:09:11.378Z,3.90
2024-04-19T01:11:38.445Z,3.23
2024-04-19T01:14:05.989Z,3.50
2024-04-19T01:16:33.072Z,3.53
2024-04-19T01:19:00.538Z,3.73
2024-04-19T01:21:28.190Z,4.13
2024-04-19T01:24:04.305Z,3.63
2024-04-19T01:26:32.593Z,4.13
2024-04-19T01:28:59.977Z,3.60
2024-04-19T01:31:27.024Z,3.87
2024-04-19T01:33:54.495Z,3.90
2024-04-19T01:36:21.524Z,3.97
2024-04-19T01:38:49.231Z,3.60
2024-04-19T01:41:16.228Z,3.10
2024-04-19T01:43:44.388Z,3.60
2024-04-19T01:46:11.401Z,3.87
2024-04-19T01:48:38.921Z,3.30
2024-04-19T01:51:05.901Z,3.73
2024-04-19T01:53:33.366Z,3.37
2024-04-19T01:56:00.363Z,3.33
2024-04-19T01:58:40.578Z,4.83
2024-04-19T02:01:08.075Z,4.60
2024-04-19T02:03:35.808Z,4.03
2024-04-19T02:06:10.750Z,4.07
2024-04-19T02:08:38.335Z,3.80
2024-04-19T02:11:06.062Z,3.80
2024-04-19T02:13:33.862Z,3.67
2024-04-19T02:16:01.038Z,3.80
2024-04-19T02:18:28.828Z,3.67
2024-04-19T02:20:56.026Z,3.63
2024-04-19T02:23:38.948Z,4.00
2024-04-19T02:26:09.161Z,3.90
2024-04-19T02:28:57.002Z,3.03
2024-04-19T02:31:24.498Z,3.17
2024-04-19T02:33:52.163Z,3.87
2024-04-19T02:36:19.544Z,3.53
2024-04-19T02:38:47.235Z,3.67
2024-04-19T02:41:14.357Z,3.63
2024-04-19T02:43:45.474Z,3.87
2024-04-19T02:46:12.688Z,4.37
2024-04-19T02:48:40.203Z,3.47
2024-04-19T02:51:07.312Z,3.47
2024-04-19T02:53:35.089Z,4.20
2024-04-19T02:56:03.508Z,4.20
2024-04-19T02:58:31.142Z,3.80
2024-04-19T03:00:58.663Z,3.83
2024-04-19T03:03:26.429Z,3.97
2024-04-19T03:05:55.831Z,4.50
2024-04-19T03:08:24.815Z,4.07
2024-04-19T03:10:51.930Z,3.87
2024-04-19T03:13:19.469Z,4.00
2024-04-19T03:15:46.740Z,4.00
2024-04-19T03:18:53.109Z,4.87
2024-04-19T03:21:20.203Z,4.50
2024-04-19T03:23:47.683Z,4.33
2024-04-19T03:26:14.720Z,5.03
2024-04-19T03:28:42.216Z,4.57
2024-04-19T03:31:12.301Z,4.97
2024-04-19T03:33:39.957Z,5.50
2024-04-19T03:36:08.149Z,4.73
2024-04-19T03:38:35.633Z,5.33
2024-04-19T03:41:02.711Z,4.83
2024-04-19T03:43:42.400Z,5.27
2024-04-19T03:46:09.446Z,4.40
2024-04-19T03:48:37.154Z,5.23
2024-04-19T03:51:05.442Z,4.50
2024-04-19T03:53:32.935Z,4.53
2024-04-19T03:56:00.003Z,5.37
2024-04-19T03:58:27.396Z,4.40
2024-04-19T04:00:54.640Z,5.63
2024-04-19T04:03:22.271Z,5.13
2024-04-19T04:05:52.710Z,5.63
2024-04-19T04:08:20.126Z,5.43
2024-04-19T04:10:47.326Z,5.17
2024-04-19T04:13:14.856Z,4.77
2024-04-19T04:15:45.870Z,4.70
2024-04-19T04:18:13.530Z,5.17
2024-04-19T04:20:40.891Z,5.57
2024-04-19T04:23:08.426Z,5.13
2024-04-19T04:25:36.350Z,4.73
2024-04-19T04:28:04.844Z,5.63
2024-04-19T04:30:31.932Z,4.67
2024-04-19T04:32:59.428Z,5.40
2024-04-19T04:35:26.523Z,5.63
2024-04-19T04:37:54.107Z,5.80
2024-04-19T04:40:21.314Z,4.97
2024-04-19T04:42:48.855Z,4.83
2024-04-19T04:45:16.023Z,5.43
2024-04-19T04:47:43.623Z,5.73
2024-04-19T04:50:11.823Z,5.03
2024-04-19T04:52:39.208Z,5.70
2024-04-19T04:55:06.850Z,5.50
2024-04-19T04:57:36.177Z,5.40
2024-04-19T05:00:06.620Z,5.17
2024-04-19T05:02:35.361Z,6.30
2024-04-19T05:05:03.481Z,5.20
2024-04-19T05:07:31.130Z,5.23
2024-04-19T05:09:58.272Z,5.33
2024-04-19T05:12:25.762Z,5.33
2024-04-19T05:14:52.829Z,6.47
2024-04-19T05:17:20.284Z,5.30
2024-04-19T05:19:47.356Z,5.90
2024-04-19T05:22:14.796Z,5.90
2024-04-19T05:24:46.574Z,5.30
2024-04-19T05:27:14.130Z,4.83
2024-04-19T05:29:41.172Z,4.90
2024-04-19T05:32:08.705Z,5.53
2024-04-19T05:34:36.849Z,4.60
2024-04-19T05:37:04.926Z,4.77
2024-04-19T05:39:31.976Z,4.47
2024-04-19T05:41:59.449Z,5.00
2024-04-19T05:44:32.619Z,4.50
2024-04-19T05:47:00.211Z,4.63
2024-04-19T05:49:28.216Z,4.70
2024-04-19T05:51:55.777Z,5.10
2024-04-19T05:54:23.426Z,4.37
2024-04-19T05:56:50.866Z,4.90
2024-04-19T05:59:18.480Z,5.03
2024-04-19T06:01:46.603Z,5.10
2024-04-19T06:04:13.860Z,4.40
2024-04-19T06:06:41.384Z,4.10
2024-04-19T06:09:08.347Z,4.57
2024-04-19T06:11:35.898Z,4.60
2024-04-19T06:14:02.955Z,4.50
2024-04-19T06:16:30.407Z,4.30
2024-04-19T06:18:57.491Z,4.60
2024-04-19T06:21:25.066Z,4.33
2024-04-19T06:23:52.196Z,4.50
2024-04-19T06:26:19.763Z,4.47
2024-04-19T06:28:47.441Z,4.83
2024-04-19T06:31:15.466Z,3.70
2024-04-19T06:33:43.905Z,3.97
2024-04-19T06:36:11.460Z,3.53
2024-04-19T06:38:41.754Z,3.80
2024-04-19T06:41:10.507Z,3.53
2024-04-19T06:43:37.482Z,4.10
2024-04-19T06:46:05.026Z,4.33
2024-04-19T06:48:32.367Z,4.17
2024-04-19T06:51:00.016Z,3.50
2024-04-19T06:53:27.052Z,3.80
2024-04-19T06:55:55.576Z,3.07
2024-04-19T06:58:22.666Z,3.23
2024-04-19T07:01:05.799Z,3.77
2024-04-19T07:03:39.765Z,3.63
2024-04-19T07:06:23.158Z,4.00
2024-04-19T07:08:57.136Z,3.57
2024-04-19T07:11:24.651Z,3.70
2024-04-19T07:13:52.370Z,3.13
2024-04-19T07:16:20.009Z,3.60
2024-04-19T07:18:47.678Z,3.70
2024-04-19T07:21:15.501Z,3.70
2024-04-19T07:23:42.585Z,3.85
2024-04-19T07:26:10.084Z,3.27
2024-04-19T07:28:37.145Z,2.97
2024-04-19T07:31:04.698Z,3.40
2024-04-19T07:33:31.772Z,3.42
2024-04-19T07:35:59.208Z,3.10
2024-04-19T07:38:26.183Z,3.20
2024-04-19T07:40:53.720Z,3.47
2024-04-19T07:43:20.772Z,3.40
2024-04-19T07:45:48.343Z,3.23
2024-04-19T07:48:15.639Z,3.57
2024-04-19T07:50:43.155Z,3.47
2024-04-19T07:53:10.505Z,3.25
2024-04-19T07:55:43.757Z,3.13
2024-04-19T07:58:11.987Z,3.50
2024-04-19T08:00:39.859Z,3.00
2024-04-19T08:03:07.109Z,3.28
2024-04-19T08:05:34.728Z,3.13
2024-04-19T08:08:01.882Z,2.70
2024-04-19T08:10:31.771Z,3.00
2024-04-19T08:13:00.311Z,2.80
2024-04-19T08:15:27.813Z,2.78
2024-04-19T08:17:54.970Z,3.13
2024-04-19T08:20:22.417Z,3.08
2024-04-19T08:22:49.508Z,2.40
2024-04-19T08:25:16.922Z,2.67
2024-04-19T08:27:44.296Z,3.58
2024-04-19T08:30:15.008Z,3.60
2024-04-19T08:32:42.305Z,3.55
2024-04-19T08:35:09.856Z,4.32
2024-04-19T08:37:36.893Z,3.40
2024-04-19T08:40:05.573Z,4.00
2024-04-19T08:42:33.029Z,3.67
2024-04-19T08:45:02.582Z,4.07
2024-04-19T08:47:32.808Z,2.97
2024-04-19T08:50:00.414Z,3.20
2024-04-19T08:52:49.847Z,3.20
2024-04-19T08:55:16.188Z,3.38
2024-04-19T08:57:45.623Z,3.65
2024-04-19T09:00:15.370Z,3.80
2024-04-19T09:02:44.416Z,3.58
2024-04-19T09:05:11.891Z,3.28
2024-04-19T09:07:41.523Z,3.42
2024-04-19T09:10:11.507Z,2.80
2024-04-19T09:12:38.770Z,3.50
2024-04-19T09:15:06.620Z,3.67
2024-04-19T09:17:34.114Z,3.40
2024-04-19T09:20:01.553Z,3.42
2024-04-19T09:22:28.613Z,3.85
2024-04-19T09:24:56.395Z,3.95
2024-04-19T09:27:24.122Z,5.45
2024-04-19T09:29:52.359Z,4.80
2024-04-19T09:32:26.803Z,5.65
2024-04-19T09:34:54.249Z,5.05
2024-04-19T09:37:21.998Z,4.72
2024-04-19T09:39:49.692Z,5.68
2024-04-19T09:42:16.899Z,5.28
2024-04-19T09:44:44.484Z,4.82
2024-04-19T09:47:12.034Z,5.07
2024-04-19T09:49:44.161Z,5.40
2024-04-19T09:52:20.406Z,5.25
2024-04-19T09:55:14.426Z,5.28
2024-04-19T09:57:42.735Z,5.07
2024-04-19T10:00:10.679Z,4.57
2024-04-19T10:02:41.337Z,5.05
2024-04-19T10:05:09.021Z,5.35
2024-04-19T10:07:38.681Z,3.88
2024-04-19T10:10:06.458Z,4.25
2024-04-19T10:12:34.191Z,4.32
2024-04-19T10:15:01.766Z,4.72
2024-04-19T10:17:29.092Z,4.75
2024-04-19T10:19:57.119Z,4.43
2024-04-19T10:22:24.604Z,4.03
2024-04-19T10:25:00.732Z,3.20
2024-04-19T10:27:29.407Z,3.15
2024-04-19T10:30:00.886Z,3.55
2024-04-19T10:32:30.029Z,2.92
2024-04-19T10:34:57.509Z,3.10
2024-04-19T10:37:24.547Z,3.33
2024-04-19T10:39:52.113Z,2.90
2024-04-19T10:42:22.562Z,3.25
2024-04-19T10:44:52.047Z,3.90
2024-04-19T10:47:20.713Z,3.42
2024-04-19T10:49:48.654Z,2.92
2024-04-19T10:52:20.530Z,3.45
2024-04-19T10:54:48.154Z,3.10
2024-04-19T10:57:15.280Z,2.78
2024-04-19T10:59:42.752Z,3.38
2024-04-19T11:02:11.111Z,3.25
2024-04-19T11:04:38.723Z,3.10
2024-04-19T11:07:05.796Z,3.70
2024-04-19T11:09:33.627Z,3.20
2024-04-19T11:12:00.818Z,3.08
2024-04-19T11:14:29.621Z,2.72
2024-04-19T11:16:56.645Z,3.20
2024-04-19T11:19:25.065Z,3.53
2024-04-19T11:21:52.209Z,3.50
2024-04-19T11:24:20.270Z,3.58
2024-04-19T11:26:48.666Z,2.13
2024-04-19T11:29:16.254Z,1.67
2024-04-19T11:31:43.270Z,1.52
2024-04-19T11:34:10.783Z,2.13
2024-04-19T11:36:37.928Z,1.92
2024-04-19T11:39:05.359Z,1.90
2024-04-19T11:41:32.581Z,2.17
2024-04-19T11:44:01.305Z,2.13
2024-04-19T11:46:30.384Z,2.97
2024-04-19T11:49:04.769Z,2.88
2024-04-19T11:51:33.054Z,2.90
2024-04-19T11:54:00.639Z,2.50
2024-04-19T11:56:27.742Z,3.08
2024-04-19T11:58:55.133Z,2.88
2024-04-19T12:01:23.380Z,3.17
2024-04-19T12:03:51.117Z,2.50
2024-04-19T12:06:19.990Z,2.40
2024-04-19T12:08:48.319Z,2.40
2024-04-19T12:11:15.374Z,2.50
2024-04-19T12:14:33.193Z,3.13
2024-04-19T12:16:41.268Z,3.00
2024-04-19T12:19:14.601Z,2.55
2024-04-19T12:21:42.575Z,2.55
2024-04-19T12:24:11.941Z,2.15
2024-04-19T12:26:40.560Z,3.15
2024-04-19T12:29:10.040Z,2.85
2024-04-19T12:31:37.391Z,3.17
2024-04-19T12:34:06.472Z,3.15
2024-04-19T12:36:33.909Z,2.95
2024-04-19T12:39:01.354Z,3.15
2024-04-19T12:41:31.269Z,2.88
2024-04-19T12:43:59.683Z,3.55
2024-04-19T12:46:26.764Z,2.55
2024-04-19T12:49:03.140Z,3.40
2024-04-19T12:51:30.368Z,3.45
2024-04-19T12:53:58.028Z,2.90
2024-04-19T12:56:25.711Z,2.70
2024-04-19T12:58:53.577Z,2.85
2024-04-19T13:01:20.828Z,2.92
2024-04-19T13:03:51.665Z,2.67
2024-04-19T13:06:19.609Z,2.97
2024-04-19T13:08:47.273Z,2.92
2024-04-19T13:11:14.502Z,2.72
2024-04-19T13:13:54.358Z,2.75
2024-04-19T13:16:22.193Z,2.90
2024-04-19T13:18:49.993Z,2.65
2024-04-19T13:21:17.483Z,2.90
2024-04-19T13:23:44.983Z,2.80
2024-04-19T13:26:13.073Z,2.88
2024-04-19T13:28:41.947Z,1.90
2024-04-19T13:31:09.198Z,2.15
2024-04-19T13:33:36.762Z,2.03
2024-04-19T13:36:04.458Z,2.17
2024-04-19T13:38:31.969Z,1.90
2024-04-19T13:40:58.986Z,2.13
2024-04-19T13:43:28.574Z,2.00
2024-04-19T13:45:58.218Z,2.30
2024-04-19T13:48:38.711Z,2.13
2024-04-19T13:51:07.141Z,2.30
2024-04-19T13:53:42.464Z,2.00
2024-04-19T13:56:15.349Z,2.15
2024-04-19T13:58:43.210Z,1.98
2024-04-19T14:01:17.795Z,1.88
2024-04-19T14:03:45.930Z,2.20
2024-04-19T14:06:13.079Z,2.10
2024-04-19T14:08:41.030Z,2.55
2024-04-19T14:11:08.070Z,2.30
2024-04-19T14:13:35.615Z,2.35
2024-04-19T14:16:03.347Z,2.28
2024-04-19T14:18:30.841Z,2.40
2024-04-19T14:20:58.225Z,2.78
2024-04-19T14:23:26.501Z,2.80
2024-04-19T14:25:53.611Z,2.55
2024-04-19T14:28:21.123Z,2.90
2024-04-19T14:30:51.389Z,2.72
2024-04-19T14:33:19.818Z,2.83
2024-04-19T14:35:46.900Z,2.45
2024-04-19T14:38:14.617Z,2.50
2024-04-19T14:40:42.087Z,2.42
2024-04-19T14:43:10.011Z,3.08
2024-04-19T14:45:37.182Z,6.05
2024-04-19T14:48:05.886Z,3.17
2024-04-19T14:50:33.045Z,2.60
2024-04-19T14:53:08.549Z,2.80
2024-04-19T14:55:38.101Z,2.67
2024-04-19T14:58:05.681Z,2.55
2024-04-19T15:00:33.258Z,2.45
2024-04-19T15:03:00.281Z,2.63
2024-04-19T15:05:27.870Z,2.78
2024-04-19T15:07:55.113Z,2.35
2024-04-19T15:10:22.716Z,2.70
2024-04-19T15:12:49.815Z,3.13
2024-04-19T15:15:17.648Z,2.70
2024-04-19T15:17:46.852Z,2.88
2024-04-19T15:20:15.649Z,2.75
2024-04-19T15:22:43.326Z,2.90
2024-04-19T15:25:12.034Z,3.45
2024-04-19T15:27:39.351Z,7.65
2024-04-19T15:30:07.342Z,3.70
2024-04-19T15:32:34.712Z,4.18
2024-04-19T15:35:02.930Z,5.32
2024-04-19T15:37:30.174Z,6.47
2024-04-19T15:39:57.718Z,9.35
2024-04-19T15:42:24.869Z,10.48
2024-04-19T15:44:52.343Z,6.53
2024-04-19T15:47:19.752Z,4.85
2024-04-19T15:49:51.397Z,4.85
2024-04-19T15:52:20.221Z,3.90
2024-04-19T15:54:48.945Z,3.30
2024-04-19T15:57:16.114Z,3.50
2024-04-19T15:59:43.691Z,50.88
2024-04-19T16:02:11.243Z,48.22
2024-04-19T16:04:38.962Z,39.95
2024-04-19T16:07:06.397Z,7.90
2024-04-19T16:09:34.202Z,3.60
2024-04-19T16:12:01.312Z,3.17
2024-04-19T16:14:28.832Z,2.70
2024-04-19T16:16:55.944Z,5.53
2024-04-19T16:19:24.740Z,4.50
2024-04-19T16:21:51.793Z,21.90
2024-04-19T16:24:19.213Z,10.38
2024-04-19T16:26:46.222Z,4.70
2024-04-19T16:29:13.695Z,3.70
2024-04-19T16:31:40.724Z,3.65
2024-04-19T16:34:11.006Z,5.70
2024-04-19T16:36:38.932Z,8.32
2024-04-19T16:39:07.926Z,8.38
2024-04-19T16:41:34.950Z,22.33
2024-04-19T16:44:02.499Z,6.50
2024-04-19T16:46:29.686Z,15.00
2024-04-19T16:48:57.222Z,30.15
2024-04-19T16:51:24.400Z,36.53
2024-04-19T16:53:51.900Z,60.72
2024-04-19T16:56:20.359Z,25.10
2024-04-19T16:58:47.876Z,9.50
2024-04-19T17:01:15.733Z,19.67
2024-04-19T17:03:43.458Z,86.70
2024-04-19T17:06:12.354Z,36.05
2024-04-19T17:08:39.904Z,96.38
2024-04-19T17:11:08.347Z,134.23
2024-04-19T17:13:35.944Z,172.45
2024-04-19T17:16:03.024Z,110.55
2024-04-19T17:18:30.473Z,140.40
2024-04-19T17:21:00.475Z,215.13
2024-04-19T17:23:29.239Z,84.57
2024-04-19T17:25:56.352Z,85.38
2024-04-19T17:28:23.843Z,175.52
2024-04-19T17:30:52.716Z,162.88
2024-04-19T17:33:20.388Z,97.85
2024-04-19T17:35:47.473Z,94.18
2024-04-19T17:38:15.037Z,96.82
2024-04-19T17:40:43.478Z,107.55
2024-04-19T17:43:10.997Z,112.82
2024-04-19T17:45:38.279Z,82.47
2024-04-19T17:48:06.270Z,128.52
2024-04-19T17:50:33.511Z,146.68
2024-04-19T17:53:03.107Z,136.35
2024-04-19T17:55:32.007Z,146.05
2024-04-19T17:57:59.511Z,120.90
2024-04-19T18:00:26.643Z,183.73
2024-04-19T18:02:54.125Z,81.22
2024-04-19T18:05:21.254Z,81.73
2024-04-19T18:07:48.638Z,92.80
2024-04-19T18:10:20.501Z,188.23
2024-04-19T18:12:48.214Z,79.78
2024-04-19T18:15:15.176Z,70.43
2024-04-19T18:17:42.821Z,168.87
2024-04-19T18:20:10.288Z,109.50
2024-04-19T18:22:40.272Z,55.73
2024-04-19T18:25:07.632Z,58.90
2024-04-19T18:27:36.411Z,77.57
2024-04-19T18:30:03.799Z,74.30
2024-04-19T18:32:31.303Z,40.60
2024-04-19T18:34:59.380Z,42.90
2024-04-19T18:37:27.675Z,57.57
2024-04-19T18:39:54.767Z,41.27
2024-04-19T18:42:22.192Z,27.43
2024-04-19T18:44:49.255Z,37.97
2024-04-19T18:47:19.766Z,26.45
2024-04-19T18:49:47.217Z,48.47
2024-04-19T18:52:14.643Z,27.48
2024-04-19T18:54:41.850Z,17.50
2024-04-19T18:57:09.240Z,15.03
2024-04-19T18:59:36.399Z,28.70
2024-04-19T19:02:05.496Z,23.33
2024-04-19T19:04:36.580Z,11.30
2024-04-19T19:07:04.184Z,12.40
2024-04-19T19:09:31.528Z,11.57
2024-04-19T19:12:00.846Z,9.97
2024-04-19T19:14:32.591Z,10.03
2024-04-19T19:17:01.751Z,21.80
2024-04-19T19:19:28.930Z,19.25
2024-04-19T19:21:56.563Z,25.97
2024-04-19T19:24:23.767Z,18.98
2024-04-19T19:26:51.257Z,13.35
2024-04-19T19:29:23.194Z,11.37
2024-04-19T19:31:52.455Z,10.37
2024-04-19T19:34:19.607Z,13.40
2024-04-19T19:36:49.703Z,9.40
2024-04-19T19:39:17.573Z,22.30
2024-04-19T19:41:45.006Z,13.97
2024-04-19T19:44:12.074Z,8.70
2024-04-19T19:46:39.544Z,7.70
2024-04-19T19:49:07.328Z,8.03
2024-04-19T19:51:35.632Z,8.27
2024-04-19T19:54:03.977Z,7.87
2024-04-19T19:56:31.805Z,8.27
2024-04-19T19:58:58.788Z,17.42
2024-04-19T20:01:45.040Z,42.10
2024-04-19T20:04:30.495Z,18.17
2024-04-19T20:06:58.575Z,8.70
2024-04-19T20:09:25.668Z,8.10
2024-04-19T20:11:53.864Z,8.53
2024-04-19T20:14:21.335Z,7.83
2024-04-19T20:16:48.808Z,7.63
2024-04-19T20:19:16.039Z,12.55
2024-04-19T20:21:43.670Z,14.60
2024-04-19T20:24:10.771Z,15.77
2024-04-19T20:26:38.254Z,26.13
2024-04-19T20:29:05.617Z,18.37
2024-04-19T20:31:33.269Z,20.53
2024-04-19T20:34:00.368Z,18.00
2024-04-19T20:36:28.060Z,9.30
2024-04-19T20:38:55.098Z,9.47
2024-04-19T20:41:22.842Z,9.10
2024-04-19T20:43:49.915Z,9.90
2024-04-19T20:46:17.546Z,11.40
2024-04-19T20:48:44.580Z,12.73
2024-04-19T20:51:12.191Z,25.00
2024-04-19T20:53:39.243Z,17.63
2024-04-19T20:56:09.216Z,26.52
2024-04-19T20:58:37.374Z,18.30
2024-04-19T21:01:10.694Z,12.03
2024-04-19T21:03:38.226Z,13.15
2024-04-19T21:06:06.063Z,11.77
2024-04-19T21:08:33.168Z,22.13
2024-04-19T21:11:00.702Z,40.97
2024-04-19T21:13:27.739Z,39.37
2024-04-19T21:16:13.944Z,57.47
2024-04-19T21:18:43.886Z,32.80
2024-04-19T21:21:11.551Z,20.87
2024-04-19T21:23:39.083Z,21.45
2024-04-19T21:26:07.617Z,10.45
2024-04-19T21:28:40.011Z,25.00
2024-04-19T21:31:08.375Z,14.47
2024-04-19T21:33:36.599Z,19.63
2024-04-19T21:36:04.470Z,53.17
2024-04-19T21:38:32.855Z,31.20
2024-04-19T21:41:06.032Z,23.57
2024-04-19T21:43:34.051Z,12.02
2024-04-19T21:46:05.486Z,15.23
2024-04-19T21:48:33.668Z,17.60
2024-04-19T21:51:01.026Z,20.27
2024-04-19T21:53:28.075Z,15.67
2024-04-19T21:55:55.451Z,34.83
2024-04-19T21:58:22.587Z,72.37
2024-04-19T22:00:50.130Z,41.73
2024-04-19T22:03:17.208Z,32.43
2024-04-19T22:05:44.718Z,46.37
2024-04-19T22:08:12.412Z,30.93
2024-04-19T22:10:39.827Z,23.10
2024-04-19T22:13:13.077Z,17.00
2024-04-19T22:15:42.838Z,17.23
2024-04-19T22:18:10.188Z,14.88
2024-04-19T22:20:37.660Z,20.67
2024-04-19T22:23:05.043Z,55.77
2024-04-19T22:25:32.404Z,25.37
2024-04-19T22:27:59.534Z,31.23
2024-04-19T22:30:27.116Z,21.35
2024-04-19T22:32:54.611Z,36.05
2024-04-19T22:35:22.114Z,33.83
2024-04-19T22:37:49.239Z,30.87
2024-04-19T22:40:16.795Z,28.23
2024-04-19T22:42:43.921Z,25.87
2024-04-19T22:45:11.352Z,48.47
2024-04-19T22:47:38.424Z,43.33
2024-04-19T22:50:06.295Z,73.97
2024-04-19T22:52:33.451Z,31.00
2024-04-19T22:55:00.988Z,19.60
2024-04-19T22:57:28.195Z,20.13
2024-04-19T22:59:56.334Z,16.57
2024-04-19T23:02:23.390Z,14.57
2024-04-19T23:04:50.822Z,14.37
2024-04-19T23:07:18.097Z,20.10
2024-04-19T23:09:45.627Z,33.07
2024-04-19T23:12:12.738Z,26.53
2024-04-19T23:14:40.125Z,42.43
2024-04-19T23:17:07.212Z,23.83
2024-04-19T23:19:34.772Z,17.57
2024-04-19T23:22:01.911Z,15.23
2024-04-19T23:24:29.371Z,18.27
2024-04-19T23:26:56.320Z,15.00
2024-04-19T23:29:23.852Z,13.13
2024-04-19T23:31:50.779Z,11.17
2024-04-19T23:34:18.791Z,20.80
2024-04-19T23:36:45.931Z,18.93
2024-04-19T23:39:13.456Z,21.87
2024-04-19T23:41:40.454Z,20.70
2024-04-19T23:44:09.141Z,22.40
2024-04-19T23:46:36.330Z,12.43
2024-04-19T23:49:03.958Z,10.43
2024-04-19T23:51:34.791Z,10.27
2024-04-19T23:54:05.002Z,9.70
2024-04-19T23:56:32.256Z,10.17
2024-04-19T23:58:59.664Z,9.90
